createdAt,value
2022-12-19T00:00:44.848Z,-2.2
2022-12-19T00:03:44.874Z,-2.2
2022-12-19T00:06:44.860Z,-2.1
2022-12-19T00:09:44.860Z,-2.1
2022-12-19T00:12:44.988Z,-2.1
2022-12-19T00:15:44.952Z,-2.1
2022-12-19T00:18:44.877Z,-2.1
2022-12-19T00:21:44.877Z,-2.1
2022-12-19T00:24:44.881Z,-2.1
2022-12-19T00:27:44.895Z,-2.1
2022-12-19T00:30:45.011Z,-2.1
2022-12-19T00:33:44.893Z,-2
2022-12-19T00:36:44.900Z,-2
2022-12-19T00:39:44.905Z,-2
2022-12-19T00:42:48.765Z,-1.9
2022-12-19T00:45:44.962Z,-1.9
2022-12-19T00:48:45.033Z,-1.9
2022-12-19T00:51:44.919Z,-1.9
2022-12-19T00:54:44.972Z,-1.9
2022-12-19T00:57:44.939Z,-1.9
2022-12-19T01:00:44.956Z,-1.9
2022-12-19T01:03:58.311Z,-1.8
2022-12-19T01:06:45.049Z,-1.8
2022-12-19T01:09:44.949Z,-1.8
2022-12-19T01:12:44.974Z,-1.8
2022-12-19T01:15:44.957Z,-1.8
2022-12-19T01:18:44.957Z,-1.8
2022-12-19T01:21:44.962Z,-1.7
2022-12-19T01:24:45.081Z,-1.7
2022-12-19T01:27:44.985Z,-1.7
2022-12-19T01:30:44.977Z,-1.6
2022-12-19T01:33:44.981Z,-1.6
2022-12-19T01:36:44.991Z,-1.6
2022-12-19T01:39:44.991Z,-1.6
2022-12-19T01:42:45.121Z,-1.5
2022-12-19T01:45:45.998Z,-1.5
2022-12-19T01:48:45.033Z,-1.5
2022-12-19T01:51:45.001Z,-1.5
2022-12-19T01:54:45.007Z,-1.5
2022-12-19T01:57:44.991Z,-1.5
2022-12-19T02:00:45.144Z,-1.4
2022-12-19T02:03:44.996Z,-1.4
2022-12-19T02:06:44.994Z,-1.4
2022-12-19T02:09:45.010Z,-1.4
2022-12-19T02:12:45.023Z,-1.3
2022-12-19T02:15:45.010Z,-1.3
2022-12-19T02:18:45.140Z,-1.3
2022-12-19T02:21:45.028Z,-1.3
2022-12-19T02:24:45.027Z,-1.2
2022-12-19T02:27:45.039Z,-1.2
2022-12-19T02:30:45.045Z,-1.2
2022-12-19T02:33:45.051Z,-1.2
2022-12-19T02:36:45.323Z,-1.1
2022-12-19T02:39:45.050Z,-1.1
2022-12-19T02:42:45.069Z,-1.1
2022-12-19T02:45:45.128Z,-1.1
2022-12-19T02:48:45.068Z,-1.1
2022-12-19T02:51:45.069Z,-1.1
2022-12-19T02:54:45.520Z,-1.1
2022-12-19T02:57:45.097Z,-1.1
2022-12-19T03:00:45.092Z,-1.1
2022-12-19T03:03:45.095Z,-1.1
2022-12-19T03:06:45.099Z,-1.1
2022-12-19T03:09:45.106Z,-1.1
2022-12-19T03:12:45.243Z,-1.1
2022-12-19T03:15:45.116Z,-1.1
2022-12-19T03:18:45.117Z,-1.1
2022-12-19T03:21:45.118Z,-1.1
2022-12-19T03:24:45.124Z,-1.1
2022-12-19T03:27:45.147Z,-1.1
2022-12-19T03:30:45.270Z,-1.1
2022-12-19T03:33:45.131Z,-1.1
2022-12-19T03:36:45.153Z,-1.1
2022-12-19T03:39:45.142Z,-1.1
2022-12-19T03:42:45.164Z,-1.1
2022-12-19T03:45:45.220Z,-1.2
2022-12-19T03:48:45.299Z,-1.2
2022-12-19T03:51:45.185Z,-1.2
2022-12-19T03:54:45.188Z,-1.2
2022-12-19T03:57:45.220Z,-1.2
2022-12-19T04:00:45.213Z,-1.2
2022-12-19T04:03:45.223Z,-1.2
2022-12-19T04:06:45.345Z,-1.1
2022-12-19T04:09:45.236Z,-1.1
2022-12-19T04:12:45.241Z,-1.1
2022-12-19T04:15:45.277Z,-1.1
2022-12-19T04:18:45.253Z,-1
2022-12-19T04:21:45.255Z,-1
2022-12-19T04:24:45.374Z,-1
2022-12-19T04:27:45.277Z,-1
2022-12-19T04:30:45.332Z,-1
2022-12-19T04:33:45.276Z,-0.9
2022-12-19T04:36:45.277Z,-0.9
2022-12-19T04:39:45.290Z,-0.9
2022-12-19T04:42:45.427Z,-0.9
2022-12-19T04:45:45.332Z,-0.9
2022-12-19T04:48:45.298Z,-0.9
2022-12-19T04:51:45.303Z,-0.9
2022-12-19T04:54:45.321Z,-1
2022-12-19T04:57:45.322Z,-1
2022-12-19T05:00:45.438Z,-1
2022-12-19T05:03:47.814Z,-1
2022-12-19T05:06:45.321Z,-1.1
2022-12-19T05:09:45.323Z,-1.1
2022-12-19T05:12:45.355Z,-1.1
2022-12-19T05:15:45.462Z,-1.2
2022-12-19T05:18:45.461Z,-1.2
2022-12-19T05:21:45.352Z,-1.2
2022-12-19T05:24:45.357Z,-1.2
2022-12-19T05:27:45.383Z,-1.2
2022-12-19T05:30:49.240Z,-1.1
2022-12-19T05:33:45.365Z,-1.1
2022-12-19T05:36:45.496Z,-1
2022-12-19T05:39:45.376Z,-0.9
2022-12-19T05:42:45.389Z,-0.9
2022-12-19T05:45:45.381Z,-0.8
2022-12-19T05:48:45.382Z,-0.8
2022-12-19T05:51:45.388Z,-0.7
2022-12-19T05:54:45.513Z,-0.7
2022-12-19T05:57:45.410Z,-0.6
2022-12-19T06:00:45.408Z,-0.5
2022-12-19T06:03:45.441Z,-0.4
2022-12-19T06:06:45.411Z,-0.4
2022-12-19T06:09:45.418Z,-0.3
2022-12-19T06:12:45.555Z,-0.2
2022-12-19T06:15:45.424Z,-0.2
2022-12-19T06:18:45.720Z,-0.1
2022-12-19T06:21:48.099Z,-0.1
2022-12-19T06:24:45.443Z,0
2022-12-19T06:27:45.456Z,0
2022-12-19T06:30:45.610Z,0
2022-12-19T06:33:45.473Z,0.1
2022-12-19T06:36:45.460Z,0.1
2022-12-19T06:39:45.463Z,0.1
2022-12-19T06:42:45.499Z,0.2
2022-12-19T06:45:45.515Z,0.2
2022-12-19T06:48:45.599Z,0.3
2022-12-19T06:51:45.473Z,0.3
2022-12-19T06:54:45.480Z,0.3
2022-12-19T06:57:45.493Z,0.4
2022-12-19T07:00:45.520Z,0.4
2022-12-19T07:03:45.491Z,0.5
2022-12-19T07:06:48.992Z,0.5
2022-12-19T07:09:45.504Z,0.5
2022-12-19T07:12:45.594Z,0.6
2022-12-19T07:15:45.510Z,0.6
2022-12-19T07:18:45.514Z,0.7
2022-12-19T07:21:45.522Z,0.7
2022-12-19T07:24:45.644Z,0.7
2022-12-19T07:27:45.548Z,0.8
2022-12-19T07:30:45.535Z,0.9
2022-12-19T07:33:45.543Z,0.9
2022-12-19T07:36:45.542Z,1
2022-12-19T07:39:46.283Z,1
2022-12-19T07:42:45.679Z,1.1
2022-12-19T07:45:45.582Z,1.2
2022-12-19T07:48:45.560Z,1.3
2022-12-19T07:51:45.561Z,1.5
2022-12-19T07:54:45.563Z,1.6
2022-12-19T07:57:45.579Z,1.7
2022-12-19T08:00:45.840Z,1.9
2022-12-19T08:03:45.576Z,2
2022-12-19T08:06:45.602Z,2.1
2022-12-19T08:09:45.587Z,2.2
2022-12-19T08:12:45.603Z,2.2
2022-12-19T08:15:45.589Z,2.3
2022-12-19T08:18:45.723Z,2.3
2022-12-19T08:21:45.596Z,2.4
2022-12-19T08:24:45.616Z,2.4
2022-12-19T08:27:45.620Z,2.5
2022-12-19T08:30:45.649Z,2.5
2022-12-19T08:33:45.636Z,2.5
2022-12-19T08:36:45.739Z,2.5
2022-12-19T08:39:45.628Z,2.4
2022-12-19T08:42:45.645Z,2.4
2022-12-19T08:45:45.705Z,2.4
2022-12-19T08:48:45.639Z,2.5
2022-12-19T08:51:45.644Z,2.5
2022-12-19T08:54:45.768Z,2.5
2022-12-19T08:57:45.666Z,2.5
2022-12-19T09:00:50.420Z,2.5
2022-12-19T09:03:55.481Z,2.5
2022-12-19T09:06:45.703Z,2.5
2022-12-19T09:09:45.675Z,2.5
2022-12-19T09:12:46.661Z,2.5
2022-12-19T09:15:45.678Z,2.5
2022-12-19T09:18:48.571Z,2.5
2022-12-19T09:21:45.687Z,2.5
2022-12-19T09:24:45.732Z,2.5
2022-12-19T09:28:17.833Z,2.5
2022-12-19T09:30:45.872Z,2.5
2022-12-19T09:33:45.705Z,2.6
2022-12-19T09:36:45.706Z,2.6
2022-12-19T09:39:45.744Z,2.6
2022-12-19T09:42:45.728Z,2.6
2022-12-19T09:45:45.750Z,2.6
2022-12-19T09:48:50.884Z,2.6
2022-12-19T09:51:45.732Z,2.7
2022-12-19T09:54:45.811Z,2.7
2022-12-19T09:57:45.750Z,2.7
2022-12-19T10:00:45.735Z,2.7
2022-12-19T10:03:45.775Z,2.8
2022-12-19T10:07:04.967Z,2.8
2022-12-19T10:11:00.963Z,2.8
2022-12-19T10:12:49.315Z,2.8
2022-12-19T10:15:45.794Z,2.9
2022-12-19T10:18:48.505Z,2.9
2022-12-19T10:24:46.416Z,3
2022-12-19T10:27:58.977Z,3
2022-12-19T10:30:45.880Z,3.1
2022-12-19T10:33:45.783Z,3.1
2022-12-19T10:39:45.822Z,3.2
2022-12-19T10:42:45.945Z,3.2
2022-12-19T10:45:46.832Z,3.2
2022-12-19T10:48:45.815Z,3.3
2022-12-19T10:51:45.805Z,3.3
2022-12-19T10:54:45.836Z,3.3
2022-12-19T10:57:45.833Z,3.4
2022-12-19T11:00:45.950Z,3.4
2022-12-19T11:03:46.373Z,3.5
2022-12-19T11:06:45.867Z,3.5
2022-12-19T11:09:47.826Z,3.6
2022-12-19T11:14:36.516Z,3.6
2022-12-19T11:17:43.713Z,3.7
2022-12-19T11:22:07.708Z,3.7
2022-12-19T11:29:14.860Z,3.8
2022-12-19T11:30:22.039Z,3.8
2022-12-19T11:30:22.149Z,3.8
2022-12-19T11:31:50.111Z,3.9
2022-12-19T11:33:45.947Z,4
2022-12-19T11:36:46.014Z,4
2022-12-19T11:39:45.865Z,4.1
2022-12-19T11:42:45.888Z,4.1
2022-12-19T11:45:45.894Z,4.1
2022-12-19T11:48:45.888Z,4.1
2022-12-19T11:51:45.897Z,4.1
2022-12-19T11:54:46.315Z,4.1
2022-12-19T11:57:45.915Z,4.2
2022-12-19T12:00:45.915Z,4.2
2022-12-19T12:03:49.570Z,4.3
2022-12-19T12:06:45.983Z,4.3
2022-12-19T12:10:56.473Z,4.4
2022-12-19T12:17:27.011Z,4.4
2022-12-19T12:19:05.195Z,4.5
2022-12-19T12:24:49.837Z,4.5
2022-12-19T12:27:21.661Z,4.5
2022-12-19T12:31:34.049Z,4.6
2022-12-19T12:31:35.257Z,4.6
2022-12-19T12:31:36.961Z,4.6
2022-12-19T12:36:48.690Z,4.6
2022-12-19T12:39:45.994Z,4.7
2022-12-19T12:42:46.007Z,4.7
2022-12-19T12:45:46.068Z,4.7
2022-12-19T12:48:46.024Z,4.8
2022-12-19T12:51:46.007Z,4.8
2022-12-19T12:54:46.013Z,4.9
2022-12-19T12:57:46.023Z,5
2022-12-19T13:00:46.057Z,5.2
2022-12-19T13:03:46.034Z,5.3
2022-12-19T13:06:46.059Z,5.4
2022-12-19T13:09:46.055Z,5.4
2022-12-19T13:12:46.049Z,5.5
2022-12-19T13:15:46.085Z,5.5
2022-12-19T13:18:46.050Z,5.6
2022-12-19T13:21:46.056Z,5.6
2022-12-19T13:24:46.090Z,5.6
2022-12-19T13:27:46.077Z,5.6
2022-12-19T13:31:02.223Z,5.6
2022-12-19T13:33:46.073Z,5.7
2022-12-19T13:39:53.577Z,5.7
2022-12-19T13:39:53.799Z,5.7
2022-12-19T13:42:46.120Z,5.7
2022-12-19T13:45:46.111Z,5.7
2022-12-19T13:48:46.093Z,5.7
2022-12-19T13:51:46.099Z,5.7
2022-12-19T13:54:46.105Z,5.7
2022-12-19T13:57:46.120Z,5.7
2022-12-19T14:00:50.362Z,5.6
2022-12-19T14:03:46.147Z,5.6
2022-12-19T14:06:46.128Z,5.6
2022-12-19T14:10:42.378Z,5.6
2022-12-19T14:13:42.769Z,5.6
2022-12-19T14:15:46.172Z,5.6
2022-12-19T14:18:46.320Z,5.6
2022-12-19T14:22:08.432Z,5.6
2022-12-19T14:24:46.143Z,5.6
2022-12-19T14:28:16.174Z,5.7
2022-12-19T14:30:46.226Z,5.7
2022-12-19T14:33:58.852Z,5.7
2022-12-19T14:36:46.199Z,5.7
2022-12-19T14:39:46.166Z,5.7
2022-12-19T14:43:30.310Z,5.7
2022-12-19T14:51:00.052Z,5.7
2022-12-19T14:51:00.131Z,5.7
2022-12-19T14:54:18.937Z,5.7
2022-12-19T14:58:50.525Z,5.7
2022-12-19T15:01:08.636Z,5.7
2022-12-19T15:03:52.121Z,5.7
2022-12-19T15:07:06.109Z,5.7
2022-12-19T15:11:01.939Z,5.7
2022-12-19T15:12:56.711Z,5.7
2022-12-19T15:15:46.429Z,5.7
2022-12-19T15:18:46.236Z,5.6
2022-12-19T15:21:46.238Z,5.6
2022-12-19T15:24:46.237Z,5.7
2022-12-19T15:27:46.255Z,5.7
2022-12-19T15:30:46.282Z,5.7
2022-12-19T15:34:07.062Z,5.7
2022-12-19T15:36:46.267Z,5.7
2022-12-19T15:39:46.264Z,5.7
2022-12-19T15:42:46.282Z,5.7
2022-12-19T15:45:46.266Z,5.8
2022-12-19T15:48:46.293Z,5.7
2022-12-19T15:51:46.272Z,5.8
2022-12-19T15:54:49.107Z,5.7
2022-12-19T15:57:46.294Z,5.8
2022-12-19T16:00:46.285Z,5.7
2022-12-19T16:03:46.384Z,5.7
2022-12-19T16:06:46.326Z,5.7
2022-12-19T16:09:46.321Z,5.7
2022-12-19T16:12:46.305Z,5.7
2022-12-19T16:15:46.424Z,5.7
2022-12-19T16:18:46.304Z,5.6
2022-12-19T16:21:46.306Z,5.6
2022-12-19T16:24:46.345Z,5.6
2022-12-19T16:27:46.326Z,5.6
2022-12-19T16:30:46.324Z,5.6
2022-12-19T16:33:46.328Z,5.6
2022-12-19T16:36:46.327Z,5.6
2022-12-19T16:39:46.333Z,5.6
2022-12-19T16:42:46.377Z,5.5
2022-12-19T16:45:46.339Z,5.6
2022-12-19T16:48:46.343Z,5.6
2022-12-19T16:51:46.354Z,5.6
2022-12-19T16:54:46.356Z,5.6
2022-12-19T16:57:46.364Z,5.7
2022-12-19T17:00:46.417Z,5.7
2022-12-19T17:03:46.364Z,5.7
2022-12-19T17:06:46.371Z,5.8
2022-12-19T17:09:46.369Z,5.8
2022-12-19T17:12:46.382Z,5.9
2022-12-19T17:15:49.772Z,6
2022-12-19T17:18:46.400Z,6
2022-12-19T17:21:46.378Z,6
2022-12-19T17:24:46.383Z,6.1
2022-12-19T17:27:46.404Z,6.2
2022-12-19T17:30:46.407Z,6.2
2022-12-19T17:33:46.398Z,6.3
2022-12-19T17:36:46.435Z,6.3
2022-12-19T17:39:46.412Z,6.4
2022-12-19T17:42:46.422Z,6.5
2022-12-19T17:45:46.424Z,6.6
2022-12-19T17:48:46.423Z,6.6
2022-12-19T17:51:46.421Z,6.6
2022-12-19T17:54:46.469Z,6.7
2022-12-19T17:57:46.472Z,6.7
2022-12-19T18:00:46.457Z,6.7
2022-12-19T18:03:46.496Z,6.7
2022-12-19T18:06:46.445Z,6.7
2022-12-19T18:09:46.449Z,6.7
2022-12-19T18:12:46.498Z,6.8
2022-12-19T18:15:46.459Z,6.8
2022-12-19T18:18:46.496Z,6.8
2022-12-19T18:21:46.461Z,6.9
2022-12-19T18:24:46.470Z,7
2022-12-19T18:27:46.479Z,7.1
2022-12-19T18:30:46.534Z,7
2022-12-19T18:33:46.473Z,6.9
2022-12-19T18:36:46.483Z,6.9
2022-12-19T18:39:46.484Z,6.8
2022-12-19T18:42:46.498Z,6.8
2022-12-19T18:45:46.515Z,6.7
2022-12-19T18:48:46.519Z,6.5
2022-12-19T18:51:46.495Z,6.4
2022-12-19T18:54:46.485Z,6.3
2022-12-19T18:57:46.514Z,6.3
2022-12-19T19:00:46.500Z,6.2
2022-12-19T19:03:46.584Z,6.2
2022-12-19T19:06:51.866Z,6.2
2022-12-19T19:09:46.493Z,6.2
2022-12-19T19:12:46.533Z,6.2
2022-12-19T19:15:46.507Z,6.3
2022-12-19T19:18:46.505Z,6.3
2022-12-19T19:21:46.505Z,6.3
2022-12-19T19:24:46.540Z,6.3
2022-12-19T19:27:46.520Z,6.3
2022-12-19T19:30:46.558Z,6.3
2022-12-19T19:33:46.511Z,6.3
2022-12-19T19:36:46.521Z,6.3
2022-12-19T19:39:46.539Z,6.3
2022-12-19T19:42:46.588Z,6.4
2022-12-19T19:45:46.532Z,6.5
2022-12-19T19:48:46.539Z,6.5
2022-12-19T19:51:46.540Z,6.6
2022-12-19T19:54:46.543Z,6.6
2022-12-19T19:57:46.555Z,6.7
2022-12-19T20:00:46.578Z,6.8
2022-12-19T20:03:46.687Z,6.9
2022-12-19T20:06:46.564Z,6.9
2022-12-19T20:09:46.572Z,7
2022-12-19T20:12:46.594Z,7.1
2022-12-19T20:15:49.822Z,7.2
2022-12-19T20:18:46.631Z,7.3
2022-12-19T20:21:46.600Z,7.3
2022-12-19T20:24:46.602Z,7.4
2022-12-19T20:27:46.622Z,7.5
2022-12-19T20:30:46.659Z,7.5
2022-12-19T20:33:46.636Z,7.5
2022-12-19T20:36:46.661Z,7.4
2022-12-19T20:39:46.651Z,7.4
2022-12-19T20:42:46.676Z,7.4
2022-12-19T20:45:46.662Z,7.3
2022-12-19T20:48:46.657Z,7.4
2022-12-19T20:51:46.673Z,7.4
2022-12-19T20:54:46.710Z,7.3
2022-12-19T20:57:46.706Z,7.4
2022-12-19T21:00:46.691Z,7.4
2022-12-19T21:03:46.843Z,7.4
2022-12-19T21:06:46.714Z,7.4
2022-12-19T21:09:46.715Z,7.4
2022-12-19T21:12:47.993Z,7.5
2022-12-19T21:15:46.792Z,7.5
2022-12-19T21:18:46.745Z,7.5
2022-12-19T21:21:46.759Z,7.5
2022-12-19T21:24:46.759Z,7.5
2022-12-19T21:27:46.789Z,7.5
2022-12-19T21:30:46.809Z,7.6
2022-12-19T21:33:46.784Z,7.6
2022-12-19T21:36:46.793Z,7.6
2022-12-19T21:39:46.802Z,7.6
2022-12-19T21:42:46.825Z,7.6
2022-12-19T21:45:46.821Z,7.7
2022-12-19T21:48:46.856Z,7.7
2022-12-19T21:51:46.833Z,7.7
2022-12-19T21:54:46.841Z,7.8
2022-12-19T21:57:46.860Z,7.8
2022-12-19T22:00:46.937Z,7.8
2022-12-19T22:03:47.000Z,7.8
2022-12-19T22:06:46.911Z,7.8
2022-12-19T22:09:46.885Z,7.8
2022-12-19T22:12:46.891Z,7.8
2022-12-19T22:15:46.899Z,7.9
2022-12-19T22:18:46.899Z,7.9
2022-12-19T22:21:46.922Z,7.8
2022-12-19T22:24:46.946Z,7.8
2022-12-19T22:27:46.930Z,7.8
2022-12-19T22:30:46.929Z,7.7
2022-12-19T22:33:46.930Z,7.7
2022-12-19T22:36:46.939Z,7.7
2022-12-19T22:39:46.935Z,7.6
2022-12-19T22:42:46.981Z,7.5
2022-12-19T22:45:46.960Z,7.4
2022-12-19T22:48:46.937Z,7.4
2022-12-19T22:51:46.940Z,7.5
2022-12-19T22:54:46.946Z,7.5
2022-12-19T22:57:46.954Z,7.4
2022-12-19T23:00:46.974Z,7.4
2022-12-19T23:03:47.115Z,7.4
2022-12-19T23:06:46.951Z,7.4
2022-12-19T23:09:46.951Z,7.3
2022-12-19T23:12:46.964Z,7.3
2022-12-19T23:15:46.951Z,7.3
2022-12-19T23:18:46.983Z,7.3
2022-12-19T23:21:47.002Z,7.2
2022-12-19T23:24:46.957Z,7.2
2022-12-19T23:27:46.996Z,7.3
2022-12-19T23:30:46.971Z,7.3
2022-12-19T23:33:46.979Z,7.3
2022-12-19T23:37:15.614Z,7.2
2022-12-19T23:39:46.984Z,7.1
2022-12-19T23:42:46.984Z,7.1
2022-12-19T23:45:47.007Z,7.1
2022-12-19T23:48:46.975Z,7.1
2022-12-19T23:51:46.982Z,7.1
2022-12-19T23:54:47.011Z,7.1
2022-12-19T23:57:46.992Z,7.1
